createdAt,value
2023-01-28T00:01:11.183Z,48.28
2023-01-28T00:03:38.644Z,48.42
2023-01-28T00:06:07.582Z,50.92
2023-01-28T00:08:34.503Z,49.63
2023-01-28T00:11:04.043Z,46.60
2023-01-28T00:13:31.911Z,43.70
2023-01-28T00:16:01.330Z,41.92
2023-01-28T00:18:29.308Z,36.88
2023-01-28T00:21:12.497Z,36.28
2023-01-28T00:23:41.438Z,36.15
2023-01-28T00:26:11.865Z,35.92
2023-01-28T00:28:39.816Z,34.63
2023-01-28T00:31:12.881Z,32.63
2023-01-28T00:33:39.680Z,34.35
2023-01-28T00:36:06.976Z,30.98
2023-01-28T00:38:34.988Z,33.25
2023-01-28T00:41:12.099Z,31.17
2023-01-28T00:43:39.469Z,30.65
2023-01-28T00:46:08.021Z,29.88
2023-01-28T00:48:36.200Z,29.85
2023-01-28T00:51:03.519Z,26.42
2023-01-28T00:53:30.572Z,21.17
2023-01-28T00:55:57.594Z,28.95
2023-01-28T00:58:24.529Z,28.38
2023-01-28T01:00:51.579Z,28.45
2023-01-28T01:03:19.703Z,26.48
2023-01-28T01:05:47.145Z,24.73
2023-01-28T01:08:14.140Z,23.55
2023-01-28T01:10:41.427Z,25.95
2023-01-28T01:13:08.652Z,26.67
2023-01-28T01:15:35.908Z,25.27
2023-01-28T01:18:02.744Z,25.48
2023-01-28T01:20:45.118Z,24.85
2023-01-28T01:23:12.895Z,22.20
2023-01-28T01:25:40.300Z,22.40
2023-01-28T01:28:09.992Z,23.70
2023-01-28T01:30:36.778Z,18.48
2023-01-28T01:33:03.656Z,20.27
2023-01-28T01:35:30.660Z,18.10
2023-01-28T01:37:57.458Z,18.98
2023-01-28T01:40:24.226Z,18.17
2023-01-28T01:42:51.031Z,17.90
2023-01-28T01:45:18.344Z,18.60
2023-01-28T01:48:02.667Z,17.83
2023-01-28T01:50:29.476Z,17.65
2023-01-28T01:53:01.074Z,17.25
2023-01-28T01:55:31.702Z,17.20
2023-01-28T01:58:02.801Z,17.73
2023-01-28T02:03:05.028Z,16.27
2023-01-28T02:05:32.145Z,16.58
2023-01-28T02:08:20.790Z,27.67
2023-01-28T02:10:57.855Z,28.23
2023-01-28T02:13:32.727Z,29.10
2023-01-28T02:16:01.236Z,30.45
2023-01-28T02:18:28.131Z,31.42
2023-01-28T02:21:38.418Z,32.83
2023-01-28T02:24:30.639Z,33.50
2023-01-28T02:27:00.358Z,37.08
2023-01-28T02:30:08.532Z,36.60
2023-01-28T02:32:57.835Z,41.67
2023-01-28T02:35:34.495Z,36.95
2023-01-28T02:38:09.305Z,37.25
2023-01-28T02:40:58.166Z,38.55
2023-01-28T02:43:39.395Z,30.80
2023-01-28T02:46:46.235Z,25.58
2023-01-28T02:49:35.967Z,21.80
2023-01-28T02:52:44.336Z,19.30
2023-01-28T02:55:59.094Z,20.73
2023-01-28T02:59:23.148Z,18.85
2023-01-28T03:01:58.563Z,20.20
2023-01-28T03:04:55.954Z,19.40
2023-01-28T03:07:27.103Z,18.70
2023-01-28T03:09:59.047Z,18.92
2023-01-28T03:12:47.256Z,19.63
2023-01-28T03:15:37.323Z,19.02
2023-01-28T03:18:29.491Z,18.95
2023-01-28T03:21:26.391Z,20.30
2023-01-28T03:24:17.942Z,19.27
2023-01-28T03:27:25.019Z,19.92
2023-01-28T03:30:16.081Z,20.93
2023-01-28T03:33:03.055Z,19.15
2023-01-28T03:38:23.181Z,19.58
2023-01-28T03:40:50.866Z,20.95
2023-01-28T03:43:17.876Z,20.48
2023-01-28T03:45:46.443Z,19.05
2023-01-28T03:48:15.381Z,19.50
2023-01-28T03:50:42.458Z,19.30
2023-01-28T03:53:16.904Z,20.90
2023-01-28T03:55:45.144Z,22.27
2023-01-28T03:58:12.795Z,21.88
2023-01-28T04:00:43.523Z,21.48
2023-01-28T04:03:18.531Z,25.00
2023-01-28T04:06:02.939Z,23.85
2023-01-28T04:08:30.298Z,24.63
2023-01-28T04:10:57.477Z,24.33
2023-01-28T04:13:24.673Z,25.65
2023-01-28T04:15:54.999Z,26.52
2023-01-28T04:18:27.462Z,23.00
2023-01-28T04:20:54.278Z,24.10
2023-01-28T04:23:21.126Z,24.90
2023-01-28T04:25:50.669Z,24.55
2023-01-28T04:28:17.965Z,26.00
2023-01-28T04:30:44.959Z,23.65
2023-01-28T04:33:11.925Z,24.55
2023-01-28T04:35:38.734Z,25.05
2023-01-28T04:38:05.903Z,25.20
2023-01-28T04:40:32.846Z,26.35
2023-01-28T04:42:59.626Z,25.33
2023-01-28T04:45:26.657Z,25.65
2023-01-28T04:47:53.577Z,25.75
2023-01-28T04:50:20.352Z,27.60
2023-01-28T04:52:47.186Z,26.30
2023-01-28T04:55:14.445Z,26.83
2023-01-28T04:57:41.595Z,29.63
2023-01-28T05:00:09.117Z,28.33
2023-01-28T05:02:35.989Z,29.38
2023-01-28T05:05:04.995Z,30.23
2023-01-28T05:07:31.823Z,29.52
2023-01-28T05:09:58.710Z,29.08
2023-01-28T05:12:25.636Z,27.33
2023-01-28T05:14:52.669Z,29.77
2023-01-28T05:17:19.528Z,29.75
2023-01-28T05:20:05.228Z,28.20
2023-01-28T05:22:32.193Z,28.13
2023-01-28T05:24:59.038Z,31.25
2023-01-28T05:27:26.047Z,29.45
2023-01-28T05:29:52.817Z,31.45
2023-01-28T05:32:19.658Z,30.35
2023-01-28T05:34:46.596Z,32.10
2023-01-28T05:37:13.619Z,31.33
2023-01-28T05:39:40.431Z,31.67
2023-01-28T05:42:07.494Z,31.30
2023-01-28T05:44:38.057Z,32.95
2023-01-28T05:47:05.009Z,31.27
2023-01-28T05:49:31.904Z,32.45
2023-01-28T05:51:59.175Z,33.13
2023-01-28T05:54:25.962Z,34.28
2023-01-28T05:56:52.847Z,31.85
2023-01-28T05:59:19.634Z,32.80
2023-01-28T06:01:46.517Z,31.73
2023-01-28T06:04:13.444Z,29.15
2023-01-28T06:06:40.236Z,31.27
2023-01-28T06:09:07.105Z,30.80
2023-01-28T06:11:34.059Z,30.67
2023-01-28T06:14:04.470Z,28.05
2023-01-28T06:16:38.732Z,28.95
2023-01-28T06:19:24.092Z,28.13
2023-01-28T06:21:53.853Z,27.63
2023-01-28T06:24:21.252Z,28.92
2023-01-28T06:26:48.140Z,30.92
2023-01-28T06:29:15.001Z,28.55
2023-01-28T06:31:42.011Z,30.35
2023-01-28T06:34:11.872Z,28.88
2023-01-28T06:36:38.710Z,29.27
2023-01-28T06:39:05.558Z,29.10
2023-01-28T06:41:32.371Z,34.47
2023-01-28T06:43:59.744Z,36.60
2023-01-28T06:46:26.583Z,37.28
2023-01-28T06:48:53.395Z,37.42
2023-01-28T06:51:20.478Z,38.85
2023-01-28T06:53:47.327Z,37.65
2023-01-28T06:56:14.717Z,39.38
2023-01-28T06:58:41.627Z,40.50
2023-01-28T07:01:08.450Z,40.75
2023-01-28T07:03:37.169Z,42.50
2023-01-28T07:06:05.419Z,39.80
2023-01-28T07:08:32.896Z,43.50
2023-01-28T07:11:01.570Z,42.67
2023-01-28T07:13:29.372Z,44.70
2023-01-28T07:15:56.723Z,43.22
2023-01-28T07:18:23.864Z,43.85
2023-01-28T07:20:51.154Z,40.10
2023-01-28T07:23:19.120Z,41.67
2023-01-28T07:25:46.352Z,41.08
2023-01-28T07:28:13.280Z,39.92
2023-01-28T07:30:40.188Z,36.20
2023-01-28T07:33:07.015Z,32.63
2023-01-28T07:35:33.897Z,33.53
2023-01-28T07:38:01.633Z,33.50
2023-01-28T07:40:29.431Z,31.08
2023-01-28T07:42:56.913Z,32.53
2023-01-28T07:45:25.646Z,29.50
2023-01-28T07:48:01.701Z,29.02
2023-01-28T07:50:29.730Z,26.65
2023-01-28T07:52:57.437Z,25.70
2023-01-28T07:55:25.221Z,31.17
2023-01-28T07:57:57.441Z,29.27
2023-01-28T08:00:35.318Z,30.13
2023-01-28T08:03:08.407Z,30.88
2023-01-28T08:06:00.931Z,38.08
2023-01-28T08:08:28.562Z,31.95
2023-01-28T08:10:55.425Z,32.63
2023-01-28T08:13:43.266Z,32.47
2023-01-28T08:16:10.336Z,34.50
2023-01-28T08:18:37.617Z,33.63
2023-01-28T08:21:05.610Z,31.42
2023-01-28T08:23:34.870Z,30.80
2023-01-28T08:26:02.164Z,27.95
2023-01-28T08:33:50.288Z,30.83
2023-01-28T08:36:17.052Z,34.22
2023-01-28T08:38:43.964Z,33.50
2023-01-28T08:41:10.853Z,33.85
2023-01-28T08:43:38.236Z,33.55
2023-01-28T08:46:08.397Z,32.83
2023-01-28T08:48:35.303Z,35.50
2023-01-28T08:51:02.147Z,38.28
2023-01-28T08:53:28.913Z,31.13
2023-01-28T08:55:56.008Z,28.58
2023-01-28T08:58:23.015Z,28.65
2023-01-28T09:00:50.299Z,30.15
2023-01-28T09:03:18.426Z,37.70
2023-01-28T09:05:45.474Z,44.35
2023-01-28T09:08:14.588Z,49.70
2023-01-28T09:10:42.463Z,41.60
2023-01-28T09:13:14.635Z,47.65
2023-01-28T09:15:42.693Z,43.60
2023-01-28T09:18:09.873Z,35.67
2023-01-28T09:20:37.829Z,37.72
2023-01-28T09:23:05.458Z,41.00
2023-01-28T09:25:32.577Z,42.65
2023-01-28T09:27:59.979Z,41.75
2023-01-28T09:30:27.261Z,46.83
2023-01-28T09:32:55.671Z,41.20
2023-01-28T09:35:22.966Z,39.72
2023-01-28T09:37:50.131Z,44.03
2023-01-28T09:40:42.863Z,42.53
2023-01-28T09:43:21.472Z,42.80
2023-01-28T09:45:50.982Z,43.00
2023-01-28T09:48:30.909Z,41.90
2023-01-28T09:50:58.200Z,37.55
2023-01-28T09:53:32.310Z,46.35
2023-01-28T09:56:03.928Z,38.95
2023-01-28T09:58:31.857Z,37.78
2023-01-28T10:01:02.724Z,36.45
2023-01-28T10:03:54.354Z,30.80
2023-01-28T10:06:43.133Z,29.10
2023-01-28T10:09:21.870Z,27.90
2023-01-28T10:12:33.060Z,28.58
2023-01-28T10:15:37.978Z,25.45
2023-01-28T10:18:17.059Z,26.65
2023-01-28T10:20:52.539Z,26.70
2023-01-28T10:23:41.002Z,27.17
2023-01-28T10:26:21.875Z,28.58
2023-01-28T10:28:54.457Z,28.00
2023-01-28T10:31:44.198Z,24.42
2023-01-28T10:34:11.757Z,23.73
2023-01-28T10:36:38.875Z,25.30
2023-01-28T10:39:06.947Z,27.65
2023-01-28T10:41:34.521Z,23.08
2023-01-28T10:44:01.465Z,22.73
2023-01-28T10:46:35.095Z,24.45
2023-01-28T10:49:15.675Z,24.88
2023-01-28T10:51:43.730Z,28.27
2023-01-28T10:54:28.396Z,35.50
2023-01-28T10:56:59.679Z,38.42
2023-01-28T10:59:33.067Z,45.08
2023-01-28T11:02:06.539Z,46.47
2023-01-28T11:04:35.796Z,46.40
2023-01-28T11:07:16.456Z,37.67
2023-01-28T11:09:49.434Z,40.22
2023-01-28T11:12:22.348Z,45.92
2023-01-28T11:15:00.247Z,52.88
2023-01-28T11:17:30.283Z,51.38
2023-01-28T11:20:01.237Z,54.03
2023-01-28T11:22:38.517Z,43.75
2023-01-28T11:25:18.928Z,49.75
2023-01-28T11:27:54.087Z,52.40
2023-01-28T11:30:28.377Z,44.85
2023-01-28T11:33:19.341Z,45.28
2023-01-28T11:35:57.777Z,49.53
2023-01-28T11:38:26.156Z,43.53
2023-01-28T11:40:55.247Z,44.42
2023-01-28T11:43:27.250Z,32.28
2023-01-28T11:46:09.712Z,30.60
2023-01-28T11:49:07.531Z,34.38
2023-01-28T11:51:45.819Z,32.42
2023-01-28T11:54:15.601Z,34.67
2023-01-28T11:56:57.690Z,33.88
2023-01-28T11:59:34.316Z,34.50
2023-01-28T12:02:16.565Z,34.15
2023-01-28T12:05:06.483Z,34.85
2023-01-28T12:07:45.735Z,35.78
2023-01-28T12:10:24.913Z,34.78
2023-01-28T12:13:15.803Z,35.00
2023-01-28T12:16:01.662Z,34.45
2023-01-28T12:19:04.726Z,36.67
2023-01-28T12:21:58.469Z,40.28
2023-01-28T12:24:31.206Z,38.22
2023-01-28T12:27:42.565Z,35.00
2023-01-28T12:30:24.450Z,36.10
2023-01-28T12:32:59.545Z,39.85
2023-01-28T12:35:43.734Z,38.35
2023-01-28T12:38:23.293Z,36.38
2023-01-28T12:41:01.642Z,32.30
2023-01-28T12:43:42.674Z,39.08
2023-01-28T12:46:23.384Z,41.72
2023-01-28T12:49:19.367Z,44.33
2023-01-28T12:51:59.326Z,40.75
2023-01-28T12:54:50.715Z,35.15
2023-01-28T12:57:24.072Z,36.80
2023-01-28T12:59:58.799Z,38.67
2023-01-28T13:02:33.274Z,45.25
2023-01-28T13:05:17.566Z,43.70
2023-01-28T13:07:57.562Z,49.42
2023-01-28T13:10:42.225Z,49.80
2023-01-28T13:13:29.435Z,47.53
2023-01-28T13:15:56.899Z,44.35
2023-01-28T13:18:40.857Z,42.85
2023-01-28T13:21:14.179Z,38.22
2023-01-28T13:23:49.910Z,41.95
2023-01-28T13:26:20.077Z,36.13
2023-01-28T13:28:48.906Z,35.50
2023-01-28T13:31:21.608Z,36.72
2023-01-28T13:34:02.551Z,37.00
2023-01-28T13:36:45.931Z,40.58
2023-01-28T13:39:21.996Z,36.95
2023-01-28T13:41:51.676Z,27.13
2023-01-28T13:44:30.289Z,34.70
2023-01-28T13:47:07.833Z,37.67
2023-01-28T13:49:40.888Z,37.75
2023-01-28T13:52:32.859Z,37.25
2023-01-28T13:55:06.107Z,37.50
2023-01-28T13:57:48.040Z,38.78
2023-01-28T14:00:35.235Z,37.85
2023-01-28T14:03:35.366Z,38.53
2023-01-28T14:06:26.911Z,40.25
2023-01-28T14:09:16.202Z,36.97
2023-01-28T14:12:37.337Z,42.50
2023-01-28T14:15:40.648Z,44.13
2023-01-28T14:18:54.033Z,42.58
2023-01-28T14:21:22.665Z,41.78
2023-01-28T14:23:52.399Z,38.50
2023-01-28T14:26:39.368Z,39.67
2023-01-28T14:29:36.772Z,37.72
2023-01-28T14:32:20.043Z,33.67
2023-01-28T14:34:48.343Z,31.60
2023-01-28T14:37:25.317Z,32.88
2023-01-28T14:40:05.314Z,33.83
2023-01-28T14:42:38.229Z,37.05
2023-01-28T14:45:24.157Z,35.92
2023-01-28T14:48:12.455Z,36.42
2023-01-28T14:51:04.620Z,36.80
2023-01-28T14:54:01.681Z,32.45
2023-01-28T14:56:44.690Z,34.13
2023-01-28T14:59:29.779Z,33.55
2023-01-28T15:01:59.779Z,36.55
2023-01-28T15:04:34.591Z,33.72
2023-01-28T15:07:19.482Z,31.55
2023-01-28T15:09:46.967Z,28.25
2023-01-28T15:12:16.064Z,26.50
2023-01-28T15:14:44.467Z,26.40
2023-01-28T15:17:27.676Z,25.98
2023-01-28T15:19:57.456Z,24.05
2023-01-28T15:22:29.157Z,22.83
2023-01-28T15:24:56.680Z,24.50
2023-01-28T15:27:31.340Z,26.02
2023-01-28T15:29:59.699Z,25.58
2023-01-28T15:32:30.057Z,26.40
2023-01-28T15:34:59.274Z,32.05
2023-01-28T15:37:26.133Z,86.32
2023-01-28T15:40:06.644Z,38.67
2023-01-28T15:42:34.306Z,44.60
2023-01-28T15:45:02.060Z,36.97
2023-01-28T15:47:34.002Z,32.72
2023-01-28T15:50:05.293Z,31.90
2023-01-28T15:52:36.621Z,28.55
2023-01-28T15:55:04.986Z,27.65
2023-01-28T15:57:34.880Z,26.17
2023-01-28T16:00:14.683Z,29.98
2023-01-28T16:03:07.289Z,27.42
2023-01-28T16:05:41.193Z,27.60
2023-01-28T16:08:11.218Z,33.50
2023-01-28T16:10:38.679Z,32.63
2023-01-28T16:13:19.975Z,31.58
2023-01-28T16:15:48.695Z,31.50
2023-01-28T16:18:39.079Z,32.08
2023-01-28T16:21:10.606Z,29.48
2023-01-28T16:23:39.473Z,31.05
2023-01-28T16:26:26.688Z,28.83
2023-01-28T16:31:20.721Z,30.90
2023-01-28T16:33:48.497Z,35.90
2023-01-28T16:36:19.365Z,38.08
2023-01-28T16:38:46.472Z,36.90
2023-01-28T16:41:26.888Z,34.53
2023-01-28T16:43:53.969Z,33.95
2023-01-28T16:46:21.532Z,34.33
2023-01-28T16:48:48.424Z,31.60
2023-01-28T16:51:18.867Z,29.23
2023-01-28T16:53:49.999Z,28.02
2023-01-28T16:56:36.038Z,27.85
2023-01-28T16:59:06.847Z,26.63
2023-01-28T17:01:33.887Z,27.70
2023-01-28T17:04:00.911Z,27.60
2023-01-28T17:06:27.868Z,31.48
2023-01-28T17:08:54.755Z,31.27
2023-01-28T17:11:21.575Z,36.60
2023-01-28T17:13:48.377Z,35.85
2023-01-28T17:16:15.263Z,36.65
2023-01-28T17:18:42.168Z,39.15
2023-01-28T17:21:10.785Z,36.42
2023-01-28T17:23:38.215Z,36.38
2023-01-28T17:26:15.595Z,35.00
2023-01-28T17:28:42.865Z,33.90
2023-01-28T17:31:14.899Z,30.60
2023-01-28T17:33:42.243Z,30.42
2023-01-28T17:36:10.482Z,24.25
2023-01-28T17:38:37.529Z,23.58
2023-01-28T17:41:06.474Z,24.58
2023-01-28T17:43:34.624Z,22.92
2023-01-28T17:46:09.896Z,23.42
2023-01-28T17:48:36.916Z,23.75
2023-01-28T17:51:04.070Z,22.55
2023-01-28T17:53:31.006Z,23.83
2023-01-28T17:55:58.060Z,22.23
2023-01-28T17:58:24.921Z,23.88
2023-01-28T18:00:51.742Z,23.35
2023-01-28T18:03:18.964Z,22.40
2023-01-28T18:05:56.284Z,24.45
2023-01-28T18:08:23.243Z,24.20
2023-01-28T18:10:53.212Z,23.60
2023-01-28T18:13:19.989Z,23.98
2023-01-28T18:15:46.853Z,24.38
2023-01-28T18:18:13.643Z,23.80
2023-01-28T18:20:49.925Z,24.13
2023-01-28T18:23:16.963Z,24.80
2023-01-28T18:25:43.805Z,23.92
2023-01-28T18:28:10.600Z,23.27
2023-01-28T18:30:39.721Z,22.33
2023-01-28T18:33:06.586Z,22.92
2023-01-28T18:35:33.415Z,24.25
2023-01-28T18:38:02.745Z,24.15
2023-01-28T18:40:30.046Z,25.17
2023-01-28T18:42:56.970Z,24.05
2023-01-28T18:45:24.368Z,24.75
2023-01-28T18:47:51.275Z,24.67
2023-01-28T18:50:18.429Z,25.25
2023-01-28T18:52:45.778Z,25.48
2023-01-28T18:55:12.700Z,25.40
2023-01-28T18:57:39.579Z,25.05
2023-01-28T19:00:07.176Z,26.42
2023-01-28T19:02:34.655Z,25.88
2023-01-28T19:05:01.606Z,27.48
2023-01-28T19:07:38.817Z,29.38
2023-01-28T19:10:06.687Z,30.42
2023-01-28T19:12:33.689Z,29.63
2023-01-28T19:15:00.683Z,28.80
2023-01-28T19:17:27.552Z,29.65
2023-01-28T19:19:54.580Z,30.77
2023-01-28T19:22:21.427Z,31.42
2023-01-28T19:24:48.448Z,28.40
2023-01-28T19:27:15.419Z,27.90
2023-01-28T19:29:43.392Z,29.13
2023-01-28T19:32:10.345Z,30.58
2023-01-28T19:34:37.102Z,31.30
2023-01-28T19:37:04.113Z,29.17
2023-01-28T19:39:32.514Z,29.58
2023-01-28T19:42:02.847Z,31.50
2023-01-28T19:44:30.658Z,28.77
2023-01-28T19:46:57.520Z,30.10
2023-01-28T19:49:24.779Z,31.45
2023-01-28T19:51:52.124Z,32.88
2023-01-28T19:54:19.292Z,29.98
2023-01-28T19:56:46.476Z,30.77
2023-01-28T19:59:17.164Z,28.65
2023-01-28T20:01:44.716Z,30.17
2023-01-28T20:04:11.909Z,27.85
2023-01-28T20:06:39.419Z,28.50
2023-01-28T20:09:15.123Z,29.33
2023-01-28T20:11:42.536Z,28.10
2023-01-28T20:14:09.486Z,28.58
2023-01-28T20:16:36.869Z,29.17
2023-01-28T20:19:17.647Z,27.25
2023-01-28T20:21:45.689Z,28.15
2023-01-28T20:24:15.286Z,26.88
2023-01-28T20:26:43.858Z,27.33
2023-01-28T20:29:16.364Z,27.73
2023-01-28T20:31:43.390Z,25.42
2023-01-28T20:34:17.035Z,25.33
2023-01-28T20:36:45.115Z,25.83
2023-01-28T20:39:13.215Z,23.95
2023-01-28T20:41:40.199Z,24.63
2023-01-28T20:44:07.126Z,25.23
2023-01-28T20:46:36.624Z,24.50
2023-01-28T20:49:06.454Z,24.85
2023-01-28T20:51:35.861Z,24.08
2023-01-28T20:54:03.435Z,22.65
2023-01-28T20:56:31.471Z,21.15
2023-01-28T20:59:04.105Z,20.88
2023-01-28T21:01:34.345Z,20.25
2023-01-28T21:04:02.349Z,19.70
2023-01-28T21:06:29.717Z,19.38
2023-01-28T21:08:57.442Z,19.77
2023-01-28T21:11:25.910Z,18.05
2023-01-28T21:13:53.833Z,19.23
2023-01-28T21:16:20.931Z,19.90
2023-01-28T21:18:49.119Z,22.02
2023-01-28T21:21:21.772Z,23.95
2023-01-28T21:23:49.052Z,25.92
2023-01-28T21:26:36.835Z,25.70
2023-01-28T21:29:04.182Z,22.83
2023-01-28T21:31:31.868Z,19.35
2023-01-28T21:34:01.400Z,19.17
2023-01-28T21:36:31.975Z,20.67
2023-01-28T21:39:00.484Z,18.90
2023-01-28T21:41:28.467Z,20.50
2023-01-28T21:43:57.506Z,19.65
2023-01-28T21:46:27.041Z,18.55
2023-01-28T21:48:56.008Z,19.75
2023-01-28T21:51:41.957Z,20.10
2023-01-28T21:54:13.325Z,19.65
2023-01-28T21:56:41.852Z,19.42
2023-01-28T21:59:28.500Z,19.20
2023-01-28T22:01:59.782Z,20.70
2023-01-28T22:04:30.081Z,20.58
2023-01-28T22:06:57.196Z,21.00
2023-01-28T22:09:24.812Z,20.85
2023-01-28T22:11:52.444Z,20.58
2023-01-28T22:14:19.958Z,19.20
2023-01-28T22:16:47.587Z,19.83
2023-01-28T22:19:15.310Z,20.67
2023-01-28T22:21:44.367Z,19.40
2023-01-28T22:24:12.517Z,20.10
2023-01-28T22:26:40.457Z,20.42
2023-01-28T22:29:08.012Z,21.20
2023-01-28T22:31:35.090Z,21.42
2023-01-28T22:34:02.619Z,22.17
2023-01-28T22:36:30.085Z,20.98
2023-01-28T22:38:57.259Z,22.10
2023-01-28T22:41:24.178Z,22.25
2023-01-28T22:43:52.329Z,20.52
2023-01-28T22:46:21.050Z,23.00
2023-01-28T22:48:48.475Z,22.88
2023-01-28T22:51:18.246Z,21.98
2023-01-28T22:53:46.438Z,21.23
2023-01-28T22:56:13.674Z,21.23
2023-01-28T22:58:40.956Z,21.52
2023-01-28T23:01:08.076Z,22.42
2023-01-28T23:03:35.119Z,22.38
2023-01-28T23:06:04.727Z,22.85
2023-01-28T23:08:32.795Z,22.58
2023-01-28T23:11:03.023Z,21.98
2023-01-28T23:13:53.476Z,22.55
2023-01-28T23:16:38.773Z,23.63
2023-01-28T23:19:24.254Z,22.83
2023-01-28T23:22:09.575Z,23.35
2023-01-28T23:24:55.141Z,22.83
2023-01-28T23:27:22.007Z,23.73
2023-01-28T23:29:49.267Z,24.92
2023-01-28T23:32:16.212Z,26.15
2023-01-28T23:34:46.768Z,25.77
2023-01-28T23:37:14.245Z,26.55
2023-01-28T23:39:44.388Z,27.70
2023-01-28T23:42:20.807Z,28.52
2023-01-28T23:44:48.655Z,28.83
2023-01-28T23:47:15.872Z,28.33
2023-01-28T23:49:42.885Z,29.45
2023-01-28T23:52:10.776Z,30.48
2023-01-28T23:54:37.728Z,30.50
2023-01-28T23:57:05.970Z,31.08
2023-01-28T23:59:32.752Z,29.10
